Orlando, Florida
Current Conditions -  °F | °C
As of 5:53 PM on Thursday 27 Nov 2014 (Local Time) from KORL Reporting Station
Clear Clear  
Wind Chill: 63°   Ceiling: Unl
Heat Index: 63°   Visibility: 10mi
Dew Point: 35°   Wind: 7mph
Humidity: 35%   Direction: 330°NNW
Pressure: 30.21"   Gusts: NA
Location:  28.54°N, 81.38°W
Report Text: KORL 272253Z 33006KT 10SM CLR 17/02 A3021 RMK AO2 SLP233 T01720017
Loading
Personal Weather Stations






























Interactive Weather Map New forecast layout! Learn more

10-Day Weather Forecast

Advertisements
Track Severe Weather on mobile